TimeEST,TemperatureF,Dew PointF,Humidity,Sea Level PressureIn,VisibilityMPH,Wind Direction,Wind SpeedMPH,Gust SpeedMPH,PrecipitationIn,Events,Conditions,WindDirDegrees,DateUTC
12:53 AM,-13.0,-18.0,78,30.23,10.0,Calm,Calm,-,N/A,,Clear,0,2014-01-22 05:53:00
1:53 AM,-13.0,-18.9,75,30.21,10.0,Calm,Calm,-,N/A,,Clear,0,2014-01-22 06:53:00
2:53 AM,-15.0,-20.9,75,30.20,10.0,Calm,Calm,-,N/A,,Clear,0,2014-01-22 07:53:00
3:53 AM,-15.0,-18.9,82,30.19,10.0,WSW,3.5,-,N/A,,Clear,250,2014-01-22 08:53:00
4:53 AM,-17.0,-20.9,82,30.19,10.0,WSW,3.5,-,N/A,,Clear,250,2014-01-22 09:53:00
5:53 AM,-11.0,-17.0,75,30.17,10.0,Calm,Calm,-,N/A,,Overcast,0,2014-01-22 10:53:00
6:53 AM,-6.0,-11.9,75,30.14,10.0,Calm,Calm,-,N/A,,Overcast,0,2014-01-22 11:53:00
7:53 AM,-2.9,-8.0,79,30.14,10.0,Calm,Calm,-,N/A,,Overcast,0,2014-01-22 12:53:00
8:53 AM,-0.0,-6.0,76,30.13,10.0,Calm,Calm,-,N/A,,Overcast,0,2014-01-22 13:53:00
9:53 AM,1.9,-7.1,66,30.13,10.0,SSW,8.1,-,N/A,,Overcast,200,2014-01-22 14:53:00
10:53 AM,3.9,-5.1,66,30.12,10.0,SSW,11.5,-,N/A,,Overcast,210,2014-01-22 15:53:00
11:03 AM,3.2,-5.8,66,30.05,10.0,SSW,8.1,-,N/A,,Overcast,210,2014-01-22 16:03:00
11:53 AM,6.1,-5.1,60,30.10,10.0,SSW,11.5,-,N/A,,Overcast,210,2014-01-22 16:53:00
12:34 PM,6.8,-4.0,61,30.00,10.0,SSW,11.5,-,N/A,,Overcast,200,2014-01-22 17:34:00
12:53 PM,7.0,-2.9,64,30.06,2.0,South,12.7,-,0.00,Snow,Light Snow,190,2014-01-22 17:53:00
12:58 PM,6.8,-2.2,67,29.99,1.5,South,12.7,-,0.00,Snow,Light Snow,190,2014-01-22 17:58:00
1:07 PM,6.8,-0.4,72,29.98,1.2,South,10.4,-,0.00,Snow,Light Snow,190,2014-01-22 18:07:00
1:32 PM,6.8,-0.4,72,29.97,1.8,SSW,10.4,-,0.00,Snow,Light Snow,210,2014-01-22 18:32:00
1:53 PM,8.1,1.0,73,30.02,1.0,SSW,10.4,-,0.00,Snow,Light Snow,200,2014-01-22 18:53:00
2:12 PM,8.6,1.4,73,29.94,2.0,SSW,12.7,-,0.00,Snow,Light Snow,200,2014-01-22 19:12:00
2:16 PM,8.6,1.4,73,29.94,2.5,SSW,12.7,-,0.00,Snow,Light Snow,200,2014-01-22 19:16:00
2:53 PM,9.0,3.0,77,30.01,1.5,South,10.4,-,0.00,Snow,Light Snow,180,2014-01-22 19:53:00
2:56 PM,8.6,3.2,79,29.93,1.0,South,11.5,-,0.00,Snow,Light Snow,190,2014-01-22 19:56:00
3:06 PM,8.6,3.2,79,29.93,1.0,South,11.5,-,0.00,Snow,Light Snow,190,2014-01-22 20:06:00
3:38 PM,10.4,3.2,73,29.92,1.0,South,9.2,-,0.00,Snow,Light Snow,190,2014-01-22 20:38:00
3:53 PM,10.0,3.9,76,29.99,1.0,SSW,9.2,-,0.00,Snow,Light Snow,200,2014-01-22 20:53:00
4:21 PM,10.4,3.2,73,29.93,1.5,South,10.4,-,0.00,Snow,Light Snow,190,2014-01-22 21:21:00
4:32 PM,10.4,5.0,79,29.93,1.0,South,11.5,-,0.00,Snow,Light Snow,190,2014-01-22 21:32:00
4:41 PM,10.4,5.0,79,29.93,0.8,South,9.2,-,0.00,Snow,Light Snow,190,2014-01-22 21:41:00
4:50 PM,10.4,3.2,73,29.93,1.5,South,11.5,18.4,0.00,Snow,Light Snow,190,2014-01-22 21:50:00
4:53 PM,10.0,3.9,76,30.00,1.5,South,10.4,18.4,0.00,Snow,Light Snow,190,2014-01-22 21:53:00
5:00 PM,10.4,5.0,79,29.93,1.2,SSW,9.2,-,0.00,Snow,Light Snow,200,2014-01-22 22:00:00
5:32 PM,10.4,5.0,79,29.93,1.5,South,11.5,-,0.00,Snow,Light Snow,190,2014-01-22 22:32:00
5:42 PM,10.4,5.0,79,29.93,1.2,South,9.2,-,0.00,Snow,Light Snow,190,2014-01-22 22:42:00
5:53 PM,10.0,5.0,80,29.99,1.5,South,10.4,-,0.00,Snow,Light Snow,190,2014-01-22 22:53:00
6:03 PM,10.4,5.0,79,29.93,2.5,South,11.5,-,0.00,Snow,Light Snow,190,2014-01-22 23:03:00
6:45 PM,10.4,5.0,79,29.94,1.5,South,6.9,-,0.00,Snow,Light Snow,190,2014-01-22 23:45:00
6:53 PM,10.0,5.0,80,30.01,1.5,SSW,8.1,-,0.00,Snow,Light Snow,200,2014-01-22 23:53:00
7:53 PM,10.0,6.1,84,29.99,2.0,SSW,9.2,-,0.00,Snow,Light Snow,200,2014-01-23 00:53:00
8:00 PM,10.4,6.8,85,29.93,1.2,South,8.1,-,0.00,Snow,Light Snow,190,2014-01-23 01:00:00
8:15 PM,10.4,6.8,85,29.92,1.5,South,5.8,-,0.00,Snow,Light Snow,190,2014-01-23 01:15:00
8:26 PM,10.4,6.8,85,29.93,3.0,South,6.9,-,0.00,Snow,Light Snow,190,2014-01-23 01:26:00
8:45 PM,10.4,6.8,85,29.92,2.5,South,6.9,-,0.00,Snow,Light Snow,190,2014-01-23 01:45:00
8:53 PM,10.0,6.1,84,29.98,2.5,South,8.1,-,0.00,Snow,Light Snow,190,2014-01-23 01:53:00
9:09 PM,10.4,6.8,85,29.92,3.0,South,6.9,-,0.00,Snow,Light Snow,190,2014-01-23 02:09:00
9:29 PM,10.4,6.8,85,29.92,3.0,SSW,4.6,-,0.00,Snow,Light Snow,210,2014-01-23 02:29:00
9:36 PM,10.4,6.8,85,29.92,2.0,SW,5.8,-,0.00,Snow,Light Snow,220,2014-01-23 02:36:00
9:53 PM,9.0,6.1,88,29.97,4.0,SSW,4.6,-,0.00,Snow,Light Snow,200,2014-01-23 02:53:00
10:07 PM,8.6,5.0,85,29.92,4.0,SSW,4.6,-,0.00,Snow,Light Snow,200,2014-01-23 03:07:00
10:51 PM,8.6,5.0,85,29.91,1.8,SSW,3.5,-,0.00,Snow,Light Snow,200,2014-01-23 03:51:00
10:53 PM,9.0,5.0,84,29.97,1.5,SSW,3.5,-,0.00,Snow,Light Snow,200,2014-01-23 03:53:00
11:22 PM,8.6,5.0,85,29.92,2.5,SSW,3.5,-,0.00,Snow,Light Snow,210,2014-01-23 04:22:00
11:40 PM,8.6,5.0,85,29.92,3.0,SSW,4.6,-,0.00,Snow,Light Snow,210,2014-01-23 04:40:00
11:53 PM,8.1,5.0,87,29.98,3.0,SSW,3.5,-,0.00,Snow,Light Snow,200,2014-01-23 04:53:00